0TX1 – Local Weather Observations

Pecan Plantation

This weather station is operated by a private user located just north of the field. Data is gathered via OpenWeatherMap.org.

Last updated:
2020-01-18 18:31:11(12:31 pm)

Temperature: 53.2 °F

Sunrise / Sunset: 7:30 am / 5:52 pm

Civil Dawn / Dusk: 7:03 am / 6:18 pm

Nearby METARs

KGDJ 181835Z AUTO 32016G20KT 10SM CLR 13/05 A3036 RMK AO2 T01300049

KCPT 181835Z AUTO 35018KT 8SM CLR 13/05 A3034 RMK A01

KFWS 181747Z 34019G23KT 10SM CLR 12/06 A3035

KSEP 181835Z AUTO 34017G22KT 10SM CLR 12/03 A3037 RMK AO2 T01200028